createdAt,value
2023-03-11T00:04:31.543Z,6.26
2023-03-11T00:09:35.248Z,6.15
2023-03-11T00:14:37.827Z,6.04
2023-03-11T00:19:41.274Z,5.98
2023-03-11T00:24:44.041Z,5.96
2023-03-11T00:29:47.662Z,5.92
2023-03-11T00:34:50.712Z,5.91
2023-03-11T00:39:53.153Z,5.88
2023-03-11T00:44:56.229Z,5.86
2023-03-11T00:49:58.284Z,5.86
2023-03-11T00:55:01.595Z,5.89
2023-03-11T01:00:06.656Z,5.95
2023-03-11T01:05:10.060Z,5.99
2023-03-11T01:10:13.700Z,6.04
2023-03-11T01:15:31.982Z,6.10
2023-03-11T01:20:37.029Z,6.19
2023-03-11T01:25:41.449Z,6.25
2023-03-11T01:30:45.059Z,6.28
2023-03-11T01:35:49.667Z,6.26
2023-03-11T01:40:53.178Z,6.22
2023-03-11T01:45:56.285Z,6.22
2023-03-11T01:51:00.173Z,6.22
2023-03-11T01:56:05.667Z,6.22
2023-03-11T02:01:09.013Z,6.23
2023-03-11T02:06:16.838Z,6.24
2023-03-11T02:11:25.184Z,6.27
2023-03-11T02:16:28.655Z,6.30
2023-03-11T02:21:34.321Z,6.34
2023-03-11T02:27:00.849Z,6.36
2023-03-11T02:32:09.067Z,6.39
2023-03-11T02:37:16.114Z,6.45
2023-03-11T02:42:25.757Z,6.50
2023-03-11T02:47:28.943Z,6.51
2023-03-11T02:52:35.210Z,6.51
2023-03-11T02:57:39.329Z,6.50
2023-03-11T03:02:42.552Z,6.50
2023-03-11T03:07:46.358Z,6.51
2023-03-11T03:12:48.642Z,6.49
2023-03-11T03:17:51.762Z,6.50
2023-03-11T03:22:55.383Z,6.49
2023-03-11T03:28:01.365Z,6.52
2023-03-11T03:33:04.754Z,6.55
2023-03-11T03:38:08.033Z,6.54
2023-03-11T03:43:10.819Z,6.49
2023-03-11T03:48:14.436Z,6.47
2023-03-11T03:53:17.909Z,6.46
2023-03-11T03:58:22.006Z,6.45
2023-03-11T04:03:26.839Z,6.44
2023-03-11T04:08:30.526Z,6.41
2023-03-11T04:13:33.528Z,6.42
2023-03-11T04:18:36.939Z,6.45
2023-03-11T04:23:40.784Z,6.47
2023-03-11T04:28:42.988Z,6.45
2023-03-11T04:33:44.914Z,6.42
2023-03-11T04:38:46.929Z,6.38
2023-03-11T04:43:49.134Z,6.34
2023-03-11T04:48:51.754Z,6.31
2023-03-11T04:53:54.726Z,6.25
2023-03-11T04:58:57.287Z,6.24
2023-03-11T05:04:00.226Z,6.19
2023-03-11T05:09:02.804Z,6.07
2023-03-11T05:14:05.210Z,6.00
2023-03-11T05:19:27.269Z,5.91
2023-03-11T05:24:30.386Z,5.82
2023-03-11T05:29:32.598Z,5.74
2023-03-11T05:34:34.522Z,5.71
2023-03-11T05:39:37.537Z,5.69
2023-03-11T05:44:39.483Z,5.63
2023-03-11T05:49:41.822Z,5.59
2023-03-11T05:54:45.048Z,5.45
2023-03-11T05:59:48.720Z,5.37
2023-03-11T06:04:51.463Z,5.31
2023-03-11T06:09:53.782Z,5.22
2023-03-11T06:14:55.929Z,5.16
2023-03-11T06:19:58.299Z,5.01
2023-03-11T06:25:00.829Z,4.94
2023-03-11T06:30:04.049Z,4.86
2023-03-11T06:35:07.343Z,4.84
2023-03-11T06:40:14.131Z,4.77
2023-03-11T06:45:20.155Z,4.71
2023-03-11T06:50:28.132Z,4.67
2023-03-11T06:55:32.312Z,4.56
2023-03-11T07:00:35.477Z,4.38
2023-03-11T07:05:39.120Z,4.21
2023-03-11T07:10:43.517Z,4.10
2023-03-11T07:15:47.196Z,4.01
2023-03-11T07:20:50.706Z,3.91
2023-03-11T07:25:56.386Z,3.82
2023-03-11T07:31:00.395Z,3.76
2023-03-11T07:36:14.083Z,3.73
2023-03-11T07:41:18.780Z,3.74
2023-03-11T07:46:24.699Z,3.64
2023-03-11T07:51:31.006Z,3.51
2023-03-11T07:56:36.186Z,3.42
2023-03-11T08:01:42.133Z,3.36
2023-03-11T08:06:48.366Z,3.30
2023-03-11T08:11:52.082Z,3.27
2023-03-11T08:16:56.007Z,3.20
2023-03-11T08:22:01.690Z,3.17
2023-03-11T08:27:04.137Z,3.14
2023-03-11T08:32:08.035Z,3.06
2023-03-11T08:37:10.427Z,3.01
2023-03-11T08:42:13.248Z,2.97
2023-03-11T08:47:15.728Z,2.94
2023-03-11T08:52:18.807Z,2.89
2023-03-11T08:57:21.395Z,2.70
2023-03-11T09:02:27.650Z,2.53
2023-03-11T09:07:31.616Z,2.37
2023-03-11T09:12:34.974Z,2.25
2023-03-11T09:17:36.863Z,2.20
2023-03-11T09:22:40.018Z,2.10
2023-03-11T09:27:42.233Z,2.05
2023-03-11T09:32:44.671Z,2.06
2023-03-11T09:37:47.373Z,2.03
2023-03-11T09:43:08.947Z,1.97
2023-03-11T09:48:23.076Z,1.89
2023-03-11T09:54:06.291Z,1.76
2023-03-11T09:59:24.463Z,1.72
2023-03-11T10:04:50.230Z,1.64
2023-03-11T10:09:59.072Z,1.55
2023-03-11T10:15:17.121Z,1.54
2023-03-11T10:20:56.158Z,1.62
2023-03-11T10:26:10.212Z,1.61
2023-03-11T10:31:30.721Z,1.60
2023-03-11T10:36:52.752Z,1.72
2023-03-11T10:42:01.708Z,1.81
2023-03-11T10:47:04.898Z,1.74
2023-03-11T10:52:08.324Z,1.73
2023-03-11T10:57:27.508Z,1.67
2023-03-11T11:02:38.961Z,1.52
2023-03-11T11:07:44.807Z,1.33
2023-03-11T11:12:59.414Z,1.28
2023-03-11T11:18:17.318Z,1.25
2023-03-11T11:24:08.704Z,1.19
2023-03-11T11:29:10.899Z,1.16
2023-03-11T11:34:34.776Z,1.10
2023-03-11T11:39:51.393Z,1.04
2023-03-11T11:45:11.123Z,1.07
2023-03-11T11:50:34.083Z,1.10
2023-03-11T11:55:44.127Z,1.23
2023-03-11T12:00:58.156Z,1.31
2023-03-11T12:06:21.107Z,1.25
2023-03-11T12:11:37.372Z,1.10
2023-03-11T12:17:04.756Z,1.02
2023-03-11T12:23:02.225Z,0.97
2023-03-11T12:28:20.552Z,0.94
2023-03-11T12:33:37.386Z,0.93
2023-03-11T12:38:45.556Z,0.90
2023-03-11T12:43:48.618Z,0.87
2023-03-11T12:49:14.342Z,0.78
2023-03-11T12:54:30.460Z,0.91
2023-03-11T12:59:41.882Z,1.10
2023-03-11T13:05:14.142Z,1.04
2023-03-11T13:10:18.304Z,0.90
2023-03-11T13:15:21.329Z,0.82
2023-03-11T13:20:57.787Z,0.83
2023-03-11T13:26:26.031Z,0.82
2023-03-11T13:31:30.595Z,0.82
2023-03-11T13:36:49.667Z,0.81
2023-03-11T13:41:56.134Z,0.87
2023-03-11T13:47:07.855Z,0.93
2023-03-11T13:52:17.110Z,0.95
2023-03-11T13:57:34.811Z,0.96
2023-03-11T14:02:36.876Z,0.96
2023-03-11T14:07:39.398Z,0.99
2023-03-11T14:12:41.953Z,1.03
2023-03-11T14:17:46.035Z,0.99
2023-03-11T14:22:52.863Z,0.94
2023-03-11T14:28:01.773Z,0.88
2023-03-11T14:33:18.526Z,0.83
2023-03-11T14:38:32.372Z,0.81
2023-03-11T14:43:40.299Z,0.79
2023-03-11T14:48:43.847Z,0.75
2023-03-11T14:53:51.722Z,0.75
2023-03-11T14:59:07.930Z,0.77
2023-03-11T15:04:31.471Z,0.87
2023-03-11T15:09:40.655Z,0.93
2023-03-11T15:14:50.934Z,0.92
2023-03-11T15:19:53.507Z,1.02
2023-03-11T15:25:01.086Z,1.11
2023-03-11T15:30:18.408Z,1.15
2023-03-11T15:35:27.424Z,1.15
2023-03-11T15:40:44.609Z,1.16
2023-03-11T15:45:48.885Z,1.11
2023-03-11T15:50:55.101Z,1.05
2023-03-11T15:56:07.896Z,0.96
2023-03-11T16:01:10.597Z,0.91
2023-03-11T16:06:13.473Z,0.88
2023-03-11T16:11:16.085Z,0.83
2023-03-11T16:16:21.041Z,0.81
2023-03-11T16:21:31.488Z,0.81
2023-03-11T16:26:35.609Z,0.74
2023-03-11T16:31:37.673Z,0.67
2023-03-11T16:36:40.354Z,0.60
2023-03-11T16:41:43.965Z,0.56
2023-03-11T16:46:45.971Z,0.52
2023-03-11T16:51:48.013Z,0.47
2023-03-11T16:56:50.534Z,0.46
2023-03-11T17:01:52.927Z,0.42
2023-03-11T17:06:57.569Z,0.32
2023-03-11T17:12:02.409Z,0.24
2023-03-11T17:17:05.162Z,0.27
2023-03-11T17:22:09.268Z,0.29
2023-03-11T17:27:13.147Z,0.28
2023-03-11T17:32:17.469Z,0.29
2023-03-11T17:37:20.924Z,0.31
2023-03-11T17:42:25.037Z,0.26
2023-03-11T17:47:29.560Z,0.21
2023-03-11T17:52:32.658Z,0.10
2023-03-11T17:57:45.156Z,0.05
2023-03-11T18:02:51.306Z,-0.04
2023-03-11T18:07:56.641Z,-0.14
2023-03-11T18:13:13.183Z,-0.21
2023-03-11T18:18:25.964Z,-0.23
2023-03-11T18:23:46.596Z,-0.26
2023-03-11T18:29:00.819Z,-0.28
2023-03-11T18:34:14.773Z,-0.36
2023-03-11T18:39:20.834Z,-0.44
2023-03-11T18:44:25.093Z,-0.49
2023-03-11T18:49:29.405Z,-0.57
2023-03-11T18:54:34.848Z,-0.64
2023-03-11T18:59:39.501Z,-0.68
2023-03-11T19:04:45.940Z,-0.65
2023-03-11T19:09:49.758Z,-0.64
2023-03-11T19:14:55.320Z,-0.65
2023-03-11T19:20:00.346Z,-0.65
2023-03-11T19:25:10.047Z,-0.63
2023-03-11T19:30:14.945Z,-0.56
2023-03-11T19:35:21.456Z,-0.45
2023-03-11T19:40:30.904Z,-0.40
2023-03-11T19:45:35.367Z,-0.37
2023-03-11T19:50:42.528Z,-0.30
2023-03-11T19:55:48.339Z,-0.19
2023-03-11T20:00:52.582Z,-0.16
2023-03-11T20:06:01.477Z,-0.14
2023-03-11T20:11:08.215Z,-0.12
2023-03-11T20:16:18.482Z,-0.06
2023-03-11T20:21:23.762Z,-0.07
2023-03-11T20:26:28.874Z,-0.08
2023-03-11T20:31:37.846Z,-0.09
2023-03-11T20:36:43.333Z,-0.06
2023-03-11T20:41:49.386Z,-0.04
2023-03-11T20:46:55.684Z,-0.03
2023-03-11T20:52:03.472Z,-0.04
2023-03-11T20:57:10.191Z,-0.03
2023-03-11T21:02:15.949Z,-0.06
2023-03-11T21:07:26.204Z,-0.08
2023-03-11T21:12:31.297Z,-0.05
2023-03-11T21:17:36.680Z,-0.05
2023-03-11T21:22:40.049Z,-0.07
2023-03-11T21:27:44.197Z,-0.09
2023-03-11T21:32:47.902Z,-0.08
2023-03-11T21:37:51.338Z,-0.14
2023-03-11T21:42:55.197Z,-0.22
2023-03-11T21:48:00.091Z,-0.24
2023-03-11T21:53:03.056Z,-0.26
2023-03-11T21:58:07.009Z,-0.33
2023-03-11T22:03:10.214Z,-0.37
2023-03-11T22:08:14.954Z,-0.37
2023-03-11T22:13:18.613Z,-0.43
2023-03-11T22:18:21.604Z,-0.50
2023-03-11T22:23:24.880Z,-0.62
2023-03-11T22:28:28.265Z,-0.69
2023-03-11T22:33:30.738Z,-0.75
2023-03-11T22:38:34.715Z,-0.83
2023-03-11T22:43:38.802Z,-0.89
2023-03-11T22:48:42.631Z,-0.91
2023-03-11T22:53:46.018Z,-0.93
2023-03-11T22:58:49.383Z,-0.98
2023-03-11T23:03:51.721Z,-1.04
2023-03-11T23:08:54.519Z,-1.06
2023-03-11T23:13:57.722Z,-1.05
2023-03-11T23:19:01.316Z,-1.08
2023-03-11T23:24:06.184Z,-1.14
2023-03-11T23:29:09.444Z,-1.14
2023-03-11T23:34:12.515Z,-1.16
2023-03-11T23:39:15.320Z,-1.19
2023-03-11T23:44:17.858Z,-1.23
2023-03-11T23:49:19.958Z,-1.23
2023-03-11T23:54:22.301Z,-1.25
2023-03-11T23:59:25.493Z,-1.28
